Time;durP1;ratioP1;P1;durP2;ratioP2;P2;SDS_P1;SDS_P2;PMS_P1;PMS_P2;Temp;Humidity;BMP_temperature;BMP_pressure;BME280_temperature;BME280_humidity;BME280_pressure;Samples;Min_cycle;Max_cycle;Signal;HPM_P1;HPM_P2
2022/10/28 00:00:09;;;;;;;;;;;;;;;14.54;76.12;101481.97;5058816;28;19932;-30
2022/10/28 00:02:34;;;;;;;;;;;;;;;14.52;76.18;101476.69;5056579;28;19920;-30
2022/10/28 00:04:59;;;;;;;;;;;;;;;14.53;76.09;101477.53;5042720;28;20362;-30
2022/10/28 00:07:26;;;;;;;;;;;;;;;14.54;75.96;101479.31;5069406;28;19924;-30
2022/10/28 00:09:51;;;;;;;;;;;;;;;14.53;75.82;101474.88;5067561;28;20015;-30
2022/10/28 00:12:16;;;;;;;;;;;;;;;14.53;75.91;101472.25;5055344;28;20008;-30
2022/10/28 00:14:42;;;;;;;;;;;;;;;14.54;75.82;101474.03;5062420;28;20011;-30
2022/10/28 00:17:07;;;;;;;;;;;;;;;14.53;75.95;101470.47;5063290;28;19995;-30
2022/10/28 00:19:32;;;;;;;;;;;;;;;14.53;75.87;101466.94;5060100;28;20023;-30
2022/10/28 00:21:57;;;;;;;;;;;;;;;14.55;76.07;101468.69;5068323;28;19976;-30
2022/10/28 00:24:23;;;;;;;;;;;;;;;14.56;75.81;101469.53;5066840;28;19916;-30
2022/10/28 00:26:48;;;;;;;;;;;;;;;14.58;75.73;101473.06;5062930;28;20274;-30
2022/10/28 00:29:14;;;;;;;;;;;;;;;14.57;75.73;101460.72;5063317;28;19924;-30
2022/10/28 00:31:40;;;;;;;;;;;;;;;14.57;75.70;101463.38;5067555;28;20574;-30
2022/10/28 00:34:06;;;;;;;;;;;;;;;14.57;75.76;101468.69;5066294;28;19947;-30
2022/10/28 00:36:33;;;;;;;;;;;;;;;14.56;75.94;101464.25;5052051;28;19923;-30
2022/10/28 00:38:58;;;;;;;;;;;;;;;14.55;76.06;101466.03;5069599;28;19912;-30
2022/10/28 00:41:28;;;;;;;;;;;;;;;14.56;76.18;101466.91;5053768;28;20123;-30
2022/10/28 00:43:55;;;;;;;;;;;;;;;14.55;76.29;101460.72;5049880;28;20440;-30
2022/10/28 00:46:20;;;;;;;;;;;;;;;14.56;76.23;101458.94;5067258;28;19931;-30
2022/10/28 00:48:46;;;;;;;;;;;;;;;14.56;76.16;101461.59;5051959;28;19912;-30
2022/10/28 00:51:12;;;;;;;;;;;;;;;14.55;76.06;101459.84;5056368;28;20331;-30
2022/10/28 00:53:37;;;;;;;;;;;;;;;14.56;76.26;101450.97;5061428;28;19938;-30
2022/10/28 00:56:03;;;;;;;;;;;;;;;14.55;76.31;101451.88;5070593;28;20369;-30
2022/10/28 00:58:28;;;;;;;;;;;;;;;14.56;76.29;101456.28;5038628;28;19917;-30
2022/10/28 01:00:53;;;;;;;;;;;;;;;14.54;76.35;101447.47;5041769;28;20411;-30
2022/10/28 01:03:19;;;;;;;;;;;;;;;14.55;76.46;101451.88;5066972;28;20031;-30
2022/10/28 01:05:45;;;;;;;;;;;;;;;14.53;76.40;101449.25;5067921;28;20007;-30
2022/10/28 01:08:10;;;;;;;;;;;;;;;14.50;76.33;101447.50;5064362;28;20066;-30
2022/10/28 01:10:54;;;;;;;;;;;;;;;14.53;76.30;101443.03;5045114;28;20444;-30
2022/10/28 01:13:36;;;;;;;;;;;;;;;14.52;76.32;101443.94;5065537;28;20011;-30
2022/10/28 01:16:04;;;;;;;;;;;;;;;14.50;76.22;101442.19;5054353;28;19917;-30
2022/10/28 01:18:35;;;;;;;;;;;;;;;14.48;76.40;101438.69;5051511;28;20372;-30
2022/10/28 01:21:00;;;;;;;;;;;;;;;14.47;76.32;101442.22;5064490;28;19977;-30
2022/10/28 01:23:34;;;;;;;;;;;;;;;14.46;76.03;101445.78;5068816;28;20360;-30
2022/10/28 01:26:05;;;;;;;;;;;;;;;14.43;76.16;101435.22;5051002;28;19917;-30
2022/10/28 01:28:44;;;;;;;;;;;;;;;14.43;76.06;101439.63;5064697;28;19970;-30
2022/10/28 01:31:24;;;;;;;;;;;;;;;14.42;76.00;101440.53;5053050;28;20357;-30
2022/10/28 01:33:51;;;;;;;;;;;;;;;14.41;75.98;101446.75;5065073;28;19924;-30
2022/10/28 01:36:26;;;;;;;;;;;;;;;14.39;75.98;101445.88;5052010;28;20221;-30
2022/10/28 01:38:57;;;;;;;;;;;;;;;14.38;75.81;101447.69;5051589;28;20423;-30
2022/10/28 01:41:30;;;;;;;;;;;;;;;14.36;75.76;101438.84;5059727;28;20288;-30
2022/10/28 01:44:01;;;;;;;;;;;;;;;14.36;75.84;101446.81;5046598;28;20340;-30
2022/10/28 01:46:27;;;;;;;;;;;;;;;14.34;75.80;101436.19;5056958;28;19920;-30
2022/10/28 01:48:56;;;;;;;;;;;;;;;14.34;75.67;101432.69;5062095;28;20522;-30
2022/10/28 01:51:23;;;;;;;;;;;;;;;14.33;75.56;101422.94;5068277;28;19916;-30
2022/10/28 01:53:49;;;;;;;;;;;;;;;14.32;75.62;101432.72;5067349;28;20023;-30
2022/10/28 01:56:15;;;;;;;;;;;;;;;14.31;75.55;101433.59;5053008;28;20007;-30
2022/10/28 01:58:40;;;;;;;;;;;;;;;14.30;75.49;101438.94;5046587;28;20461;-30
2022/10/28 02:01:06;;;;;;;;;;;;;;;14.28;75.71;101440.72;5043728;28;20011;-30
2022/10/28 02:03:32;;;;;;;;;;;;;;;14.27;75.68;101431.88;5068236;28;20007;-30
2022/10/28 02:05:57;;;;;;;;;;;;;;;14.26;75.93;101432.78;5053653;28;19917;-30
2022/10/28 02:08:23;;;;;;;;;;;;;;;14.26;75.64;101431.88;5060636;28;19956;-30
2022/10/28 02:10:54;;;;;;;;;;;;;;;14.24;75.65;101423.97;5056034;28;19917;-30
2022/10/28 02:13:19;;;;;;;;;;;;;;;14.23;75.65;101427.50;5053352;28;20386;-30
2022/10/28 02:15:53;;;;;;;;;;;;;;;14.22;75.57;101434.59;5052619;28;20011;-30
2022/10/28 02:18:22;;;;;;;;;;;;;;;14.19;75.78;101425.78;5031612;28;19916;-30
2022/10/28 02:20:54;;;;;;;;;;;;;;;14.18;75.86;101430.22;5049366;28;19924;-30
2022/10/28 02:23:27;;;;;;;;;;;;;;;14.17;76.13;101432.91;5044277;28;19928;-30
2022/10/28 02:26:08;;;;;;;;;;;;;;;14.15;76.01;101432.91;5049485;28;19955;-30
2022/10/28 02:28:38;;;;;;;;;;;;;;;14.16;75.96;101424.06;5062207;28;19962;-30
2022/10/28 02:31:30;;;;;;;;;;;;;;;14.13;75.91;101421.44;5044368;28;19916;-30
2022/10/28 02:33:56;;;;;;;;;;;;;;;14.13;75.81;101425.88;5066318;28;19920;-30
2022/10/28 02:36:22;;;;;;;;;;;;;;;14.12;75.64;101411.72;5047448;28;19927;-30
2022/10/28 02:38:54;;;;;;;;;;;;;;;14.10;75.63;101413.50;5042381;28;20007;-30
2022/10/28 02:41:21;;;;;;;;;;;;;;;14.09;75.54;101415.31;5051251;28;19920;-30
2022/10/28 02:43:47;;;;;;;;;;;;;;;14.08;75.43;101412.66;5046229;28;19916;-30
2022/10/28 02:46:12;;;;;;;;;;;;;;;14.06;75.35;101404.72;5040606;28;19947;-30
2022/10/28 02:48:39;;;;;;;;;;;;;;;14.07;75.18;101402.97;5047096;28;20375;-30
2022/10/28 02:51:23;;;;;;;;;;;;;;;14.05;74.98;101396.78;5062108;28;19923;-30
2022/10/28 02:54:02;;;;;;;;;;;;;;;14.03;74.98;101398.56;5051507;28;19923;-30
2022/10/28 02:56:29;;;;;;;;;;;;;;;14.01;74.92;101389.75;5047915;28;19942;-30
2022/10/28 02:58:54;;;;;;;;;;;;;;;13.98;74.83;101386.22;5058488;28;19917;-30
2022/10/28 03:01:19;;;;;;;;;;;;;;;13.96;74.79;101388.03;5062810;28;19943;-30
2022/10/28 03:03:44;;;;;;;;;;;;;;;13.95;74.80;101399.56;5064640;28;19916;-30
2022/10/28 03:06:09;;;;;;;;;;;;;;;13.94;74.82;101403.06;5055544;28;19921;-30
2022/10/28 03:08:35;;;;;;;;;;;;;;;13.91;74.92;101399.59;5054733;28;20566;-30
2022/10/28 03:11:00;;;;;;;;;;;;;;;13.89;74.68;101396.97;5060365;28;19943;-30
2022/10/28 03:13:25;;;;;;;;;;;;;;;13.88;74.85;101402.28;5061207;28;19916;-30
2022/10/28 03:15:50;;;;;;;;;;;;;;;13.84;74.69;101394.34;5060740;28;20043;-30
2022/10/28 03:18:16;;;;;;;;;;;;;;;13.82;74.63;101389.97;5061474;28;20353;-30
2022/10/28 03:20:41;;;;;;;;;;;;;;;13.80;75.01;101386.44;5057527;28;20373;-30
2022/10/28 03:23:06;;;;;;;;;;;;;;;13.78;74.59;101386.50;5064934;28;20400;-30
2022/10/28 03:25:31;;;;;;;;;;;;;;;13.76;74.54;101372.34;5061122;28;20373;-30
2022/10/28 03:27:57;;;;;;;;;;;;;;;13.75;74.50;101382.97;5057441;28;19917;-30
2022/10/28 03:30:22;;;;;;;;;;;;;;;13.71;74.55;101383.00;5068908;28;20015;-30
2022/10/28 03:32:47;;;;;;;;;;;;;;;13.70;74.55;101391.84;5064402;28;20008;-30
2022/10/28 03:35:12;;;;;;;;;;;;;;;13.68;74.47;101393.66;5066728;28;19917;-30
2022/10/28 03:37:40;;;;;;;;;;;;;;;13.66;74.28;101400.75;5071783;28;19917;-30
2022/10/28 03:40:06;;;;;;;;;;;;;;;13.65;74.33;101412.25;5068085;28;19917;-30
2022/10/28 03:42:32;;;;;;;;;;;;;;;13.61;74.36;101410.53;5062299;28;19928;-30
2022/10/28 03:44:58;;;;;;;;;;;;;;;13.60;74.24;101411.38;5065993;28;19946;-30
2022/10/28 03:47:23;;;;;;;;;;;;;;;13.59;74.40;101404.34;5039498;28;21324;-30
2022/10/28 03:49:48;;;;;;;;;;;;;;;13.57;74.25;101403.50;5062919;28;20069;-30
2022/10/28 03:52:13;;;;;;;;;;;;;;;13.55;74.15;101403.50;5065421;28;20396;-30
2022/10/28 03:54:39;;;;;;;;;;;;;;;13.53;74.18;101399.97;5061727;28;19927;-30
2022/10/28 03:57:04;;;;;;;;;;;;;;;13.52;74.29;101407.94;5066431;28;19920;-30
2022/10/28 03:59:29;;;;;;;;;;;;;;;13.51;74.36;101412.38;5057350;28;19921;-30
2022/10/28 04:01:54;;;;;;;;;;;;;;;13.49;74.32;101419.47;5063465;28;19975;-30
2022/10/28 04:04:19;;;;;;;;;;;;;;;13.46;74.38;101412.38;5059491;28;19925;-30
2022/10/28 04:06:45;;;;;;;;;;;;;;;13.43;74.24;101403.56;5069301;28;19913;-30
2022/10/28 04:09:10;;;;;;;;;;;;;;;13.40;74.28;101404.47;5068213;28;19921;-30
2022/10/28 04:11:35;;;;;;;;;;;;;;;13.38;74.54;101395.69;5073197;28;19924;-30
2022/10/28 04:14:00;;;;;;;;;;;;;;;13.37;74.61;101398.34;5068998;28;19917;-30
2022/10/28 04:16:26;;;;;;;;;;;;;;;13.36;74.59;101402.75;5061958;28;19917;-30
2022/10/28 04:18:51;;;;;;;;;;;;;;;13.35;74.57;101401.00;5051543;28;19927;-30
2022/10/28 04:21:16;;;;;;;;;;;;;;;13.33;74.64;101393.06;5069195;28;19923;-30
2022/10/28 04:23:41;;;;;;;;;;;;;;;13.31;74.66;101389.53;5062456;28;20023;-30
2022/10/28 04:26:06;;;;;;;;;;;;;;;13.30;74.73;101389.56;5067200;28;20011;-30
2022/10/28 04:28:32;;;;;;;;;;;;;;;13.28;74.94;101391.34;5062986;28;19970;-30
2022/10/28 04:30:57;;;;;;;;;;;;;;;13.27;74.98;101392.25;5072681;28;19998;-30
2022/10/28 04:33:22;;;;;;;;;;;;;;;13.27;74.95;101390.47;5063077;28;19916;-30
2022/10/28 04:35:47;;;;;;;;;;;;;;;13.26;74.93;101385.19;5043821;28;19923;-30
2022/10/28 04:38:14;;;;;;;;;;;;;;;13.23;75.19;101383.44;5066767;28;19916;-30
2022/10/28 04:40:39;;;;;;;;;;;;;;;13.22;75.26;101381.69;5057253;28;20331;-30
2022/10/28 04:43:04;;;;;;;;;;;;;;;13.21;75.38;101377.28;5066522;28;19943;-30
2022/10/28 04:45:30;;;;;;;;;;;;;;;13.20;75.46;101391.41;5062220;28;20285;-30
2022/10/28 04:47:56;;;;;;;;;;;;;;;13.20;75.43;101396.72;5045812;28;20400;-30
2022/10/28 04:50:21;;;;;;;;;;;;;;;13.16;75.51;101390.56;5073801;28;19916;-30
2022/10/28 04:52:46;;;;;;;;;;;;;;;13.18;75.46;101394.06;5068278;28;19916;-30
2022/10/28 04:55:11;;;;;;;;;;;;;;;13.15;75.48;101388.81;5042178;28;19917;-30
2022/10/28 04:57:37;;;;;;;;;;;;;;;13.14;75.50;101391.47;5067232;28;19927;-30
2022/10/28 05:00:03;;;;;;;;;;;;;;;13.13;75.87;101390.59;5070599;28;19917;-30
2022/10/28 05:02:28;;;;;;;;;;;;;;;13.10;75.79;101390.59;5072975;28;19917;-30
2022/10/28 05:04:53;;;;;;;;;;;;;;;13.10;75.66;101377.38;5069032;28;19917;-30
2022/10/28 05:07:18;;;;;;;;;;;;;;;13.08;75.70;101371.22;5052204;28;19916;-30
2022/10/28 05:09:44;;;;;;;;;;;;;;;13.08;75.67;101376.53;5039945;28;19920;-30
2022/10/28 05:12:09;;;;;;;;;;;;;;;13.08;75.83;101381.81;5064675;28;19912;-30
2022/10/28 05:14:34;;;;;;;;;;;;;;;13.08;75.80;101373.88;5068007;28;19916;-30
2022/10/28 05:16:59;;;;;;;;;;;;;;;13.07;75.89;101374.75;5058792;28;19936;-30
2022/10/28 05:19:24;;;;;;;;;;;;;;;13.06;76.14;101370.34;5067950;28;19924;-30
2022/10/28 05:21:50;;;;;;;;;;;;;;;13.04;76.04;101364.19;5046644;28;19921;-30
2022/10/28 05:24:17;;;;;;;;;;;;;;;13.02;76.02;101364.22;5063519;28;21351;-30
2022/10/28 05:26:42;;;;;;;;;;;;;;;13.02;75.95;101360.66;5062298;28;19916;-30
2022/10/28 05:29:07;;;;;;;;;;;;;;;13.02;76.02;101360.66;5067722;28;19916;-30
2022/10/28 05:31:32;;;;;;;;;;;;;;;13.01;76.11;101364.22;5067989;28;20282;-30
2022/10/28 05:33:57;;;;;;;;;;;;;;;13.02;76.03;101376.56;5060982;28;19952;-30
2022/10/28 05:36:23;;;;;;;;;;;;;;;13.00;76.23;101367.75;5044269;28;20332;-30
2022/10/28 05:38:48;;;;;;;;;;;;;;;13.00;76.43;101371.28;5063034;28;20397;-30
2022/10/28 05:41:13;;;;;;;;;;;;;;;12.99;76.39;101363.34;5068349;28;19977;-30
2022/10/28 05:43:39;;;;;;;;;;;;;;;12.99;76.46;101371.28;5060875;28;19928;-30
2022/10/28 05:46:04;;;;;;;;;;;;;;;12.98;76.39;101373.06;5066783;28;19927;-30
2022/10/28 05:48:29;;;;;;;;;;;;;;;12.98;76.39;101366.88;5058707;28;19924;-30
2022/10/28 05:50:54;;;;;;;;;;;;;;;12.98;76.21;101362.47;5066853;28;19912;-30
2022/10/28 05:53:19;;;;;;;;;;;;;;;12.96;76.51;101362.50;5070031;28;19926;-30
2022/10/28 05:55:45;;;;;;;;;;;;;;;12.98;76.66;101358.94;5058682;28;19923;-30
2022/10/28 05:58:10;;;;;;;;;;;;;;;12.96;76.52;101362.50;5052173;28;19925;-30
2022/10/28 06:00:35;;;;;;;;;;;;;;;12.96;76.65;101357.19;5066967;28;19916;-30
2022/10/28 06:03:08;;;;;;;;;;;;;;;12.98;76.42;101364.25;5061070;28;20377;-30
2022/10/28 06:05:33;;;;;;;;;;;;;;;12.96;76.65;101356.31;5061975;28;19920;-30
2022/10/28 06:07:58;;;;;;;;;;;;;;;12.97;76.70;101358.06;5065904;28;19923;-30
2022/10/28 06:10:23;;;;;;;;;;;;;;;12.96;76.66;101361.59;5061591;28;19966;-30
2022/10/28 06:12:49;;;;;;;;;;;;;;;12.97;76.51;101366.00;5068733;28;19978;-30
2022/10/28 06:15:14;;;;;;;;;;;;;;;12.95;76.62;101367.78;5063230;28;19928;-30
2022/10/28 06:17:39;;;;;;;;;;;;;;;12.97;76.57;101368.63;5050679;28;19923;-30
2022/10/28 06:20:04;;;;;;;;;;;;;;;12.98;76.59;101366.88;5060578;28;19924;-30
2022/10/28 06:22:30;;;;;;;;;;;;;;;12.98;76.62;101372.19;5062669;28;19932;-30
2022/10/28 06:24:55;;;;;;;;;;;;;;;12.97;76.88;101363.34;5061649;28;19917;-30
2022/10/28 06:27:20;;;;;;;;;;;;;;;12.98;76.61;101369.53;5061203;28;20319;-30
2022/10/28 06:29:45;;;;;;;;;;;;;;;12.98;76.55;101365.13;5044214;28;19975;-31
2022/10/28 06:32:11;;;;;;;;;;;;;;;12.96;76.41;101370.44;5064024;28;19978;-30
2022/10/28 06:34:38;;;;;;;;;;;;;;;12.96;76.42;101375.72;5064878;28;19924;-31
2022/10/28 06:37:03;;;;;;;;;;;;;;;12.98;76.64;101372.19;5050939;28;19958;-30
2022/10/28 06:39:28;;;;;;;;;;;;;;;12.98;76.58;101381.00;5060153;28;19960;-31
2022/10/28 06:41:53;;;;;;;;;;;;;;;12.98;76.54;101374.81;5046711;28;19932;-30
2022/10/28 06:44:19;;;;;;;;;;;;;;;12.98;76.60;101369.53;5060108;28;19921;-31
2022/10/28 06:46:44;;;;;;;;;;;;;;;12.97;76.36;101368.63;5065177;28;19959;-30
2022/10/28 06:51:38;;;;;;;;;;;;;;;12.98;76.44;101357.19;5078938;28;20336;-29
2022/10/28 06:54:03;;;;;;;;;;;;;;;12.98;76.40;101367.78;5085562;28;20075;-28
2022/10/28 06:56:29;;;;;;;;;;;;;;;12.98;76.40;101372.19;5079024;28;19960;-28
2022/10/28 06:58:54;;;;;;;;;;;;;;;12.99;76.56;101387.16;5079020;28;19920;-29
2022/10/28 07:01:20;;;;;;;;;;;;;;;13.00;76.54;101373.91;5063513;28;19936;-29
2022/10/28 07:03:45;;;;;;;;;;;;;;;13.01;76.52;101369.50;5065792;28;19917;-25
2022/10/28 07:06:10;;;;;;;;;;;;;;;13.02;76.51;101363.31;5065551;28;19916;-26
2022/10/28 07:08:36;;;;;;;;;;;;;;;13.03;76.51;101355.38;5068954;28;19916;-26
2022/10/28 07:11:01;;;;;;;;;;;;;;;13.02;76.84;101403.94;5068612;28;20294;-25
2022/10/28 07:13:27;;;;;;;;;;;;;;;13.05;76.90;101403.91;5065343;28;19959;-26
2022/10/28 07:15:53;;;;;;;;;;;;;;;13.05;76.77;101389.78;5055425;28;20285;-26
2022/10/28 07:18:18;;;;;;;;;;;;;;;13.06;76.89;101395.06;5074030;28;20006;-26
2022/10/28 07:20:43;;;;;;;;;;;;;;;13.07;76.64;101385.34;5070232;28;20054;-26
2022/10/28 07:23:09;;;;;;;;;;;;;;;13.08;76.86;101387.13;5068651;28;20089;-26
2022/10/28 07:25:34;;;;;;;;;;;;;;;13.09;76.73;101378.25;5071576;28;19917;-26
2022/10/28 07:27:59;;;;;;;;;;;;;;;13.09;76.86;101370.31;5071170;28;19924;-26
2022/10/28 07:30:25;;;;;;;;;;;;;;;13.11;76.69;101370.31;5068956;28;20359;-26
2022/10/28 07:32:50;;;;;;;;;;;;;;;13.14;76.93;101380.88;5064034;28;20377;-26
2022/10/28 07:35:16;;;;;;;;;;;;;;;13.14;76.77;101380.88;5062389;28;19917;-26
2022/10/28 07:37:41;;;;;;;;;;;;;;;13.15;76.79;101390.56;5069808;28;19928;-26
2022/10/28 07:40:06;;;;;;;;;;;;;;;13.17;76.83;101394.09;5061439;28;20011;-26
2022/10/28 07:42:32;;;;;;;;;;;;;;;13.18;76.69;101388.78;5068230;28;19963;-26
2022/10/28 07:44:57;;;;;;;;;;;;;;;13.19;76.72;101390.56;5068273;28;20015;-26
2022/10/28 07:47:22;;;;;;;;;;;;;;;13.19;76.74;101390.56;5065362;28;19916;-26
2022/10/28 07:49:48;;;;;;;;;;;;;;;13.21;76.87;101383.44;5061100;28;19917;-26
2022/10/28 07:52:13;;;;;;;;;;;;;;;13.23;76.62;101375.50;5073171;28;20016;-26
2022/10/28 07:54:38;;;;;;;;;;;;;;;13.25;76.67;101372.84;5067258;28;19916;-26
2022/10/28 07:57:03;;;;;;;;;;;;;;;13.26;76.69;101375.47;5063037;28;20365;-25
2022/10/28 07:59:29;;;;;;;;;;;;;;;13.26;76.65;101369.28;5061062;28;19962;-26
2022/10/28 08:01:54;;;;;;;;;;;;;;;13.28;76.90;101379.00;5071810;28;19966;-26
2022/10/28 08:04:19;;;;;;;;;;;;;;;13.30;76.81;101376.31;5072540;28;19920;-26
2022/10/28 08:06:47;;;;;;;;;;;;;;;13.32;76.68;101383.38;5072546;28;19963;-26
2022/10/28 08:09:13;;;;;;;;;;;;;;;13.34;76.76;101378.94;5069888;28;19966;-26
2022/10/28 08:11:38;;;;;;;;;;;;;;;13.36;76.79;101370.97;5060676;28;19956;-26
2022/10/28 08:14:03;;;;;;;;;;;;;;;13.38;76.68;101369.19;5063440;28;19971;-26
2022/10/28 08:16:29;;;;;;;;;;;;;;;13.40;76.64;101367.38;5062164;28;19924;-25
2022/10/28 08:18:55;;;;;;;;;;;;;;;13.42;76.75;101362.97;5060517;28;20381;-26
2022/10/28 08:21:21;;;;;;;;;;;;;;;13.43;76.72;101362.06;5064864;28;19970;-26
2022/10/28 08:23:46;;;;;;;;;;;;;;;13.45;76.58;101360.28;5061152;28;19921;-26
2022/10/28 08:26:12;;;;;;;;;;;;;;;13.47;76.48;101363.78;5069452;28;20418;-26
2022/10/28 08:28:38;;;;;;;;;;;;;;;13.50;76.59;101346.16;5073218;28;19916;-26
2022/10/28 08:31:03;;;;;;;;;;;;;;;13.52;76.67;101345.22;5063247;28;19916;-26
2022/10/28 08:33:31;;;;;;;;;;;;;;;13.55;76.70;101350.50;5060827;28;19962;-26
2022/10/28 08:35:57;;;;;;;;;;;;;;;13.57;76.61;101347.84;5059370;28;20404;-26
2022/10/28 08:38:22;;;;;;;;;;;;;;;13.60;76.67;101347.78;5058610;28;19940;-26
2022/10/28 08:40:50;;;;;;;;;;;;;;;13.61;76.67;101349.56;5069909;28;19922;-26
2022/10/28 08:43:28;;;;;;;;;;;;;;;13.63;76.80;101347.75;5064621;28;19927;-26
2022/10/28 08:46:08;;;;;;;;;;;;;;;13.65;76.84;101348.63;5061110;28;19998;-26
2022/10/28 08:48:34;;;;;;;;;;;;;;;13.66;76.88;101337.13;5054253;28;20373;-26
2022/10/28 08:51:02;;;;;;;;;;;;;;;13.71;76.91;101339.72;5057427;28;19928;-26
2022/10/28 08:53:32;;;;;;;;;;;;;;;13.73;76.77;101338.81;5067828;28;19916;-26
2022/10/28 08:56:02;;;;;;;;;;;;;;;13.78;76.87;101330.81;5062192;28;20445;-26
2022/10/28 08:58:29;;;;;;;;;;;;;;;13.83;76.81;101338.69;5061666;28;19936;-26
2022/10/28 09:00:55;;;;;;;;;;;;;;;13.87;76.82;101332.44;5057636;28;19978;-26
2022/10/28 09:03:23;;;;;;;;;;;;;;;13.91;77.04;101328.84;5064607;28;19920;-26
2022/10/28 09:05:53;;;;;;;;;;;;;;;13.94;76.82;101330.63;5072190;28;19917;-26
2022/10/28 09:08:22;;;;;;;;;;;;;;;13.97;76.78;101323.50;5069195;28;19924;-26
2022/10/28 09:11:02;;;;;;;;;;;;;;;14.03;76.83;101324.28;5061205;28;20386;-26
2022/10/28 09:13:37;;;;;;;;;;;;;;;14.06;76.85;101319.84;5057077;28;19921;-26
2022/10/28 09:16:02;;;;;;;;;;;;;;;14.11;76.88;101322.44;5060191;28;19956;-26
2022/10/28 09:18:39;;;;;;;;;;;;;;;14.14;76.89;101317.06;5064718;28;20005;-26
2022/10/28 09:21:05;;;;;;;;;;;;;;;14.18;76.76;101326.78;5063977;28;19916;-26
2022/10/28 09:23:38;;;;;;;;;;;;;;;14.21;76.91;101318.75;5051725;28;21626;-26
2022/10/28 09:26:23;;;;;;;;;;;;;;;14.26;76.93;101317.78;5057922;28;19916;-26
2022/10/28 09:29:07;;;;;;;;;;;;;;;14.30;76.99;101312.44;5061507;28;20286;-26
2022/10/28 09:31:37;;;;;;;;;;;;;;;14.34;77.22;101318.59;5059051;28;20003;-25
2022/10/28 09:34:05;;;;;;;;;;;;;;;14.39;77.42;101319.38;5069463;28;20337;-26
2022/10/28 09:36:41;;;;;;;;;;;;;;;14.45;78.70;101316.66;5060112;28;19916;-26
2022/10/28 09:39:08;;;;;;;;;;;;;;;14.49;77.98;101323.66;5062245;28;19917;-26
2022/10/28 09:41:36;;;;;;;;;;;;;;;14.55;78.00;101317.38;5062075;28;20010;-26
2022/10/28 09:44:10;;;;;;;;;;;;;;;14.61;77.91;101311.97;5063891;28;20007;-26
2022/10/28 09:46:36;;;;;;;;;;;;;;;14.68;77.69;101314.53;5058259;28;19916;-26
2022/10/28 09:49:02;;;;;;;;;;;;;;;14.73;78.18;101310.91;5069696;28;19927;-26
2022/10/28 09:51:42;;;;;;;;;;;;;;;14.79;78.25;101311.72;5063381;28;19923;-26
2022/10/28 09:54:07;;;;;;;;;;;;;;;14.83;78.34;101314.31;5056374;28;19942;-26
2022/10/28 09:56:33;;;;;;;;;;;;;;;14.88;78.55;101306.28;5053995;28;19952;-26
2022/10/28 09:58:59;;;;;;;;;;;;;;;14.94;78.21;101303.50;5071919;28;19951;-25
2022/10/28 10:01:24;;;;;;;;;;;;;;;14.98;78.03;101299.03;5068098;28;19923;-26
2022/10/28 10:03:50;;;;;;;;;;;;;;;15.04;77.88;101298.91;5066993;28;19917;-26
2022/10/28 10:06:18;;;;;;;;;;;;;;;15.08;77.86;101292.66;5064311;28;19923;-26
2022/10/28 10:08:44;;;;;;;;;;;;;;;15.14;77.66;101289.00;5055718;28;19923;-26
2022/10/28 10:11:28;;;;;;;;;;;;;;;15.19;77.66;101297.75;5064473;28;19913;-26
2022/10/28 10:13:54;;;;;;;;;;;;;;;15.25;77.73;101292.31;5066540;28;20014;-26
2022/10/28 10:16:25;;;;;;;;;;;;;;;15.29;77.61;101292.25;5067787;28;20010;-26
2022/10/28 10:18:52;;;;;;;;;;;;;;;15.35;77.51;101303.69;5064614;28;19951;-26
2022/10/28 10:21:20;;;;;;;;;;;;;;;15.39;77.74;101289.41;5054773;28;19917;-26
2022/10/28 10:23:45;;;;;;;;;;;;;;;15.47;78.09;101296.38;5063488;28;19981;-26
2022/10/28 10:26:11;;;;;;;;;;;;;;;15.52;78.43;101290.06;5065075;28;20374;-26
2022/10/28 10:28:43;;;;;;;;;;;;;;;15.61;79.25;101290.78;5056319;28;19917;-26
2022/10/28 10:31:15;;;;;;;;;;;;;;;15.69;79.92;101290.59;5073749;28;20252;-26
2022/10/28 10:33:41;;;;;;;;;;;;;;;15.74;80.41;101278.94;5060017;28;19924;-26
2022/10/28 10:36:06;;;;;;;;;;;;;;;15.82;80.75;101280.56;5060922;28;20278;-26
2022/10/28 10:38:32;;;;;;;;;;;;;;;15.87;80.94;101271.59;5066338;28;20394;-26
2022/10/28 10:40:57;;;;;;;;;;;;;;;15.93;80.73;101267.91;5064469;28;20408;-26
2022/10/28 10:43:24;;;;;;;;;;;;;;;15.99;80.08;101262.50;5061762;28;19920;-26
2022/10/28 10:46:13;;;;;;;;;;;;;;;16.05;79.80;101252.63;5050589;28;19923;-26
2022/10/28 10:48:39;;;;;;;;;;;;;;;16.13;79.55;101253.31;5056607;28;19924;-26
2022/10/28 10:51:05;;;;;;;;;;;;;;;16.19;79.87;101253.19;5068731;28;19924;-26
2022/10/28 10:53:31;;;;;;;;;;;;;;;16.27;80.76;101250.34;5059923;28;19982;-26
2022/10/28 10:55:59;;;;;;;;;;;;;;;16.35;81.71;101239.50;5071085;28;19921;-26
2022/10/28 10:58:25;;;;;;;;;;;;;;;16.44;82.48;101238.41;5056832;28;19924;-26
2022/10/28 11:00:55;;;;;;;;;;;;;;;16.51;82.36;101243.53;5062778;28;20361;-26
2022/10/28 11:03:24;;;;;;;;;;;;;;;16.60;82.51;101237.13;5066028;28;19978;-26
2022/10/28 11:05:57;;;;;;;;;;;;;;;16.68;82.22;101243.09;5064949;28;20273;-26
2022/10/28 11:08:27;;;;;;;;;;;;;;;16.77;82.14;101249.09;5063925;28;19920;-26
2022/10/28 11:11:04;;;;;;;;;;;;;;;16.85;81.58;101247.16;5058530;28;19920;-26
2022/10/28 11:13:29;;;;;;;;;;;;;;;16.93;81.53;101252.25;5061441;28;19923;-26
2022/10/28 11:16:03;;;;;;;;;;;;;;;17.00;81.19;101250.28;5066428;28;20023;-26
2022/10/28 11:18:30;;;;;;;;;;;;;;;17.08;80.77;101252.78;5055730;28;20043;-26
2022/10/28 11:21:04;;;;;;;;;;;;;;;17.18;81.38;101259.63;5059303;28;19924;-26
2022/10/28 11:23:30;;;;;;;;;;;;;;;17.27;82.03;101258.50;5060283;28;19931;-26
2022/10/28 11:25:57;;;;;;;;;;;;;;;17.33;81.22;101262.78;5057668;28;19916;-26
2022/10/28 11:28:25;;;;;;;;;;;;;;;17.39;80.87;101262.59;5063639;28;19920;-26
2022/10/28 11:30:54;;;;;;;;;;;;;;;17.44;80.61;101263.38;5057998;28;19917;-26
2022/10/28 11:33:38;;;;;;;;;;;;;;;17.52;80.32;101274.69;5051626;28;19919;-26
2022/10/28 11:36:12;;;;;;;;;;;;;;;17.59;80.41;101271.81;5055832;28;19964;-26
2022/10/28 11:38:44;;;;;;;;;;;;;;;17.64;80.13;101276.09;5061097;28;20015;-26
2022/10/28 11:41:12;;;;;;;;;;;;;;;17.69;79.96;101270.63;5065874;28;19923;-26
2022/10/28 11:43:53;;;;;;;;;;;;;;;17.74;79.71;101274.03;5060215;28;19921;-26
2022/10/28 11:46:22;;;;;;;;;;;;;;;17.80;79.31;101267.63;5059572;28;19978;-26
2022/10/28 11:48:47;;;;;;;;;;;;;;;17.84;79.20;101263.94;5056147;28;19934;-26
2022/10/28 11:51:22;;;;;;;;;;;;;;;17.87;78.93;101263.88;5054948;28;20172;-26
2022/10/28 11:54:03;;;;;;;;;;;;;;;17.92;78.90;101266.41;5067975;28;20021;-26
2022/10/28 11:56:29;;;;;;;;;;;;;;;17.96;78.75;101262.72;5067247;28;19921;-26
2022/10/28 11:58:54;;;;;;;;;;;;;;;17.99;78.65;101262.63;5059429;28;19924;-26
2022/10/28 12:01:39;;;;;;;;;;;;;;;18.03;78.88;101263.41;5055830;28;20012;-26
2022/10/28 12:04:16;;;;;;;;;;;;;;;18.05;78.83;101262.44;5066296;28;20351;-26
2022/10/28 12:06:44;;;;;;;;;;;;;;;18.08;78.68;101270.34;5067329;28;20312;-26
2022/10/28 12:09:15;;;;;;;;;;;;;;;18.12;78.80;101271.16;5064971;28;19920;-26
2022/10/28 12:11:56;;;;;;;;;;;;;;;18.15;78.85;101256.84;5063015;28;20007;-26
2022/10/28 12:14:31;;;;;;;;;;;;;;;18.19;78.83;101267.38;5070893;28;20381;-26
2022/10/28 12:17:11;;;;;;;;;;;;;;;18.21;79.04;101268.19;5063153;28;20297;-26
2022/10/28 12:19:47;;;;;;;;;;;;;;;18.25;78.93;101255.63;5066379;28;19916;-26
2022/10/28 12:22:14;;;;;;;;;;;;;;;18.28;78.78;101254.66;5067342;28;19935;-26
2022/10/28 12:24:39;;;;;;;;;;;;;;;18.30;78.87;101247.44;5066110;28;19917;-26
2022/10/28 12:27:11;;;;;;;;;;;;;;;18.33;78.86;101250.91;5071337;28;19917;-26
2022/10/28 12:29:38;;;;;;;;;;;;;;;18.44;81.53;101253.22;5064698;28;19917;-26
2022/10/28 12:32:08;;;;;;;;;;;;;;;18.41;79.42;101242.63;5081079;28;19920;-26
2022/10/28 12:34:34;;;;;;;;;;;;;;;18.42;79.23;101238.19;5064928;28;19998;-26
2022/10/28 12:37:01;;;;;;;;;;;;;;;18.44;78.73;101236.34;5073841;28;19912;-27
2022/10/28 12:39:27;;;;;;;;;;;;;;;18.46;78.85;101234.47;5063371;28;19921;-25